createdAt,value
2023-01-27T00:00:34.776Z,9.93
2023-01-27T00:03:01.538Z,15.60
2023-01-27T00:05:28.168Z,14.05
2023-01-27T00:07:58.396Z,13.88
2023-01-27T00:10:27.158Z,12.70
2023-01-27T00:13:12.887Z,9.77
2023-01-27T00:15:40.021Z,11.05
2023-01-27T00:18:07.202Z,11.95
2023-01-27T00:20:52.645Z,12.45
2023-01-27T00:23:39.569Z,13.23
2023-01-27T00:26:09.951Z,11.30
2023-01-27T00:28:38.475Z,11.40
2023-01-27T00:31:27.545Z,12.10
2023-01-27T00:33:56.068Z,12.52
2023-01-27T00:36:22.798Z,14.02
2023-01-27T00:38:49.427Z,10.88
2023-01-27T00:41:20.098Z,10.25
2023-01-27T00:43:47.544Z,8.77
2023-01-27T00:46:14.956Z,8.52
2023-01-27T00:48:41.627Z,9.93
2023-01-27T00:51:08.397Z,11.98
2023-01-27T00:53:35.048Z,9.85
2023-01-27T00:56:01.847Z,11.05
2023-01-27T00:58:30.218Z,10.10
2023-01-27T01:01:01.602Z,11.50
2023-01-27T01:03:31.908Z,11.20
2023-01-27T01:05:58.823Z,10.02
2023-01-27T01:08:26.163Z,10.15
2023-01-27T01:10:53.278Z,8.38
2023-01-27T01:13:21.532Z,10.32
2023-01-27T01:15:49.702Z,11.95
2023-01-27T01:18:16.562Z,11.15
2023-01-27T01:20:45.451Z,11.00
2023-01-27T01:23:13.639Z,12.13
2023-01-27T01:25:40.645Z,12.52
2023-01-27T01:28:08.875Z,12.32
2023-01-27T01:30:37.436Z,11.73
2023-01-27T01:33:06.988Z,12.63
2023-01-27T01:35:38.067Z,11.13
2023-01-27T01:38:04.727Z,11.82
2023-01-27T01:40:31.856Z,12.88
2023-01-27T01:43:01.140Z,11.80
2023-01-27T01:45:50.175Z,12.32
2023-01-27T01:48:27.189Z,10.57
2023-01-27T01:50:58.482Z,12.77
2023-01-27T01:53:31.495Z,11.27
2023-01-27T01:56:00.921Z,10.18
2023-01-27T01:58:28.157Z,9.77
2023-01-27T02:00:57.738Z,13.05
2023-01-27T02:03:27.785Z,9.70
2023-01-27T02:05:55.975Z,11.60
2023-01-27T02:08:28.306Z,13.18
2023-01-27T02:10:55.200Z,13.05
2023-01-27T02:13:22.252Z,12.27
2023-01-27T02:15:51.648Z,11.50
2023-01-27T02:20:48.322Z,10.73
2023-01-27T02:23:27.819Z,9.30
2023-01-27T02:25:59.636Z,11.02
2023-01-27T02:28:27.406Z,11.23
2023-01-27T02:30:55.504Z,9.77
2023-01-27T02:33:22.342Z,11.13
2023-01-27T02:35:59.061Z,8.65
2023-01-27T02:40:58.757Z,7.68
2023-01-27T02:43:25.482Z,10.07
2023-01-27T02:45:52.383Z,11.95
2023-01-27T02:48:19.413Z,9.52
2023-01-27T02:50:46.040Z,10.63
2023-01-27T02:53:13.010Z,8.60
2023-01-27T02:55:39.726Z,9.10
2023-01-27T02:58:08.210Z,9.52
2023-01-27T03:00:42.761Z,8.63
2023-01-27T03:03:09.559Z,11.02
2023-01-27T03:05:36.284Z,11.10
2023-01-27T03:08:03.056Z,10.50
2023-01-27T03:10:29.734Z,10.07
2023-01-27T03:12:58.140Z,9.82
2023-01-27T03:15:44.622Z,9.57
2023-01-27T03:18:16.126Z,11.40
2023-01-27T03:20:45.550Z,10.63
2023-01-27T03:23:14.122Z,8.30
2023-01-27T03:25:42.404Z,10.43
2023-01-27T03:28:09.933Z,11.77
2023-01-27T03:30:43.618Z,10.15
2023-01-27T03:33:16.615Z,10.45
2023-01-27T03:36:11.060Z,9.23
2023-01-27T03:39:02.892Z,9.52
2023-01-27T03:41:48.409Z,10.90
2023-01-27T03:44:34.107Z,8.63
2023-01-27T03:47:02.259Z,11.00
2023-01-27T03:49:28.960Z,10.23
2023-01-27T03:51:56.575Z,16.27
2023-01-27T03:54:23.181Z,11.07
2023-01-27T03:56:49.772Z,11.65
2023-01-27T03:59:17.657Z,10.50
2023-01-27T04:01:44.588Z,11.98
2023-01-27T04:04:31.386Z,10.65
2023-01-27T04:07:02.817Z,11.52
2023-01-27T04:09:31.411Z,10.35
2023-01-27T04:12:00.041Z,9.85
2023-01-27T04:14:29.064Z,10.93
2023-01-27T04:16:57.739Z,11.55
2023-01-27T04:19:25.918Z,9.55
2023-01-27T04:21:53.666Z,9.90
2023-01-27T04:24:23.129Z,9.20
2023-01-27T04:26:55.373Z,12.38
2023-01-27T04:29:24.228Z,10.23
2023-01-27T04:31:51.267Z,12.32
2023-01-27T04:34:18.784Z,12.45
2023-01-27T04:36:47.728Z,9.63
2023-01-27T04:39:15.442Z,10.10
2023-01-27T04:41:42.814Z,19.73
2023-01-27T04:44:10.459Z,12.80
2023-01-27T04:46:37.587Z,10.88
2023-01-27T04:49:04.765Z,12.85
2023-01-27T04:51:31.944Z,10.00
2023-01-27T04:54:00.177Z,14.60
2023-01-27T04:56:29.509Z,10.90
2023-01-27T04:58:58.809Z,11.63
2023-01-27T05:01:25.576Z,11.25
2023-01-27T05:03:52.220Z,8.98
2023-01-27T05:06:19.218Z,20.83
2023-01-27T05:08:45.952Z,10.38
2023-01-27T05:11:14.643Z,10.38
2023-01-27T05:13:41.435Z,13.02
2023-01-27T05:16:11.461Z,14.65
2023-01-27T05:18:39.076Z,10.68
2023-01-27T05:21:06.686Z,12.15
2023-01-27T05:23:36.625Z,10.40
2023-01-27T05:28:37.093Z,9.55
2023-01-27T05:31:06.168Z,10.32
2023-01-27T05:33:33.293Z,13.50
2023-01-27T05:36:01.632Z,11.52
2023-01-27T05:38:28.846Z,13.30
2023-01-27T05:40:57.605Z,14.90
2023-01-27T05:43:25.260Z,11.35
2023-01-27T05:45:53.570Z,14.05
2023-01-27T05:48:20.246Z,12.25
2023-01-27T05:50:56.245Z,12.95
2023-01-27T05:53:23.793Z,10.07
2023-01-27T05:55:50.988Z,11.60
2023-01-27T05:58:17.752Z,11.23
2023-01-27T06:00:44.582Z,14.70
2023-01-27T06:03:12.613Z,10.85
2023-01-27T06:05:39.682Z,10.27
2023-01-27T06:08:06.311Z,11.57
2023-01-27T06:10:37.092Z,9.07
2023-01-27T06:13:03.895Z,11.25
2023-01-27T06:15:30.910Z,13.05
2023-01-27T06:17:57.545Z,13.98
2023-01-27T06:20:25.666Z,11.50
2023-01-27T06:22:52.250Z,11.65
2023-01-27T06:25:18.924Z,15.27
2023-01-27T06:27:45.699Z,13.35
2023-01-27T06:30:13.092Z,13.00
2023-01-27T06:32:39.700Z,12.38
2023-01-27T06:35:07.317Z,13.68
2023-01-27T06:37:35.282Z,14.23
2023-01-27T06:40:01.899Z,13.32
2023-01-27T06:42:35.076Z,12.02
2023-01-27T06:45:01.765Z,13.52
2023-01-27T06:47:28.437Z,13.05
2023-01-27T06:49:55.176Z,10.27
2023-01-27T06:52:21.770Z,12.60
2023-01-27T06:54:49.707Z,11.35
2023-01-27T06:57:16.480Z,11.18
2023-01-27T06:59:43.224Z,11.30
2023-01-27T07:02:12.724Z,14.93
2023-01-27T07:04:39.501Z,10.75
2023-01-27T07:07:06.127Z,12.55
2023-01-27T07:09:42.873Z,12.05
2023-01-27T07:12:18.664Z,10.70
2023-01-27T07:14:45.296Z,12.07
2023-01-27T07:17:12.015Z,10.57
2023-01-27T07:19:38.619Z,10.60
2023-01-27T07:22:05.204Z,12.45
2023-01-27T07:24:31.934Z,9.32
2023-01-27T07:26:58.576Z,14.63
2023-01-27T07:29:26.589Z,17.98
2023-01-27T07:31:53.261Z,13.18
2023-01-27T07:34:19.967Z,13.27
2023-01-27T07:36:46.602Z,11.60
2023-01-27T07:39:13.349Z,11.32
2023-01-27T07:41:40.009Z,11.85
2023-01-27T07:44:06.628Z,14.95
2023-01-27T07:46:35.120Z,17.23
2023-01-27T07:49:01.749Z,13.48
2023-01-27T07:51:28.416Z,16.17
2023-01-27T07:53:55.020Z,12.57
2023-01-27T07:56:21.627Z,14.38
2023-01-27T07:58:48.387Z,11.60
2023-01-27T08:01:15.178Z,14.93
2023-01-27T08:03:43.326Z,12.48
2023-01-27T08:06:12.397Z,11.98
2023-01-27T08:08:39.178Z,12.70
2023-01-27T08:11:08.675Z,11.80
2023-01-27T08:13:36.587Z,11.27
2023-01-27T08:16:09.071Z,11.50
2023-01-27T08:18:35.745Z,12.35
2023-01-27T08:21:05.873Z,11.80
2023-01-27T08:23:33.376Z,13.65
2023-01-27T08:26:03.362Z,12.77
2023-01-27T08:28:32.467Z,12.30
2023-01-27T08:31:04.633Z,11.88
2023-01-27T08:33:31.371Z,13.15
2023-01-27T08:36:04.253Z,13.93
2023-01-27T08:38:30.951Z,13.73
2023-01-27T08:40:59.577Z,13.68
2023-01-27T08:43:26.239Z,13.65
2023-01-27T08:45:53.123Z,12.85
2023-01-27T08:48:19.828Z,11.57
2023-01-27T08:50:47.439Z,11.95
2023-01-27T08:53:15.711Z,14.40
2023-01-27T08:55:42.491Z,12.52
2023-01-27T08:58:09.107Z,13.63
2023-01-27T09:00:35.795Z,12.15
2023-01-27T09:03:02.462Z,11.10
2023-01-27T09:05:29.328Z,16.13
2023-01-27T09:07:56.019Z,14.05
2023-01-27T09:10:24.929Z,13.15
2023-01-27T09:12:51.783Z,16.23
2023-01-27T09:15:18.599Z,12.25
2023-01-27T09:17:45.341Z,11.45
2023-01-27T09:20:13.252Z,14.43
2023-01-27T09:22:41.258Z,10.55
2023-01-27T09:25:09.290Z,10.30
2023-01-27T09:27:39.484Z,10.00
2023-01-27T09:30:08.108Z,12.88
2023-01-27T09:32:34.744Z,10.10
2023-01-27T09:35:01.392Z,11.27
2023-01-27T09:37:28.297Z,12.75
2023-01-27T09:40:02.227Z,10.88
2023-01-27T09:42:54.310Z,15.30
2023-01-27T09:45:35.990Z,11.30
2023-01-27T09:48:19.411Z,12.27
2023-01-27T09:50:52.810Z,11.45
2023-01-27T09:53:41.915Z,13.30
2023-01-27T09:56:15.695Z,10.45
2023-01-27T09:58:58.960Z,13.00
2023-01-27T10:01:40.051Z,11.73
2023-01-27T10:04:23.378Z,11.00
2023-01-27T10:07:25.711Z,11.07
2023-01-27T10:10:21.269Z,12.77
2023-01-27T10:13:06.876Z,13.02
2023-01-27T10:15:47.827Z,11.27
2023-01-27T10:18:29.493Z,11.52
2023-01-27T10:21:03.890Z,11.43
2023-01-27T10:23:41.859Z,9.82
2023-01-27T10:26:19.842Z,11.75
2023-01-27T10:28:50.863Z,15.40
2023-01-27T10:31:26.714Z,10.65
2023-01-27T10:33:55.207Z,14.05
2023-01-27T10:36:27.738Z,12.73
2023-01-27T10:39:08.193Z,13.25
2023-01-27T10:41:46.150Z,12.60
2023-01-27T10:44:39.288Z,10.18
2023-01-27T10:47:15.834Z,13.88
2023-01-27T10:49:49.747Z,11.60
2023-01-27T10:52:21.397Z,12.63
2023-01-27T10:54:54.042Z,11.55
2023-01-27T10:57:25.920Z,13.65
2023-01-27T11:00:21.983Z,13.80
2023-01-27T11:02:55.053Z,13.15
2023-01-27T11:05:28.701Z,11.27
2023-01-27T11:07:59.119Z,14.27
2023-01-27T11:10:33.516Z,14.32
2023-01-27T11:13:03.496Z,9.82
2023-01-27T11:15:35.264Z,13.02
2023-01-27T11:18:11.127Z,13.60
2023-01-27T11:20:40.770Z,11.52
2023-01-27T11:23:15.249Z,13.65
2023-01-27T11:25:47.902Z,14.73
2023-01-27T11:28:25.677Z,11.68
2023-01-27T11:31:01.206Z,10.30
2023-01-27T11:33:40.609Z,13.55
2023-01-27T11:36:09.173Z,11.48
2023-01-27T11:38:36.004Z,12.55
2023-01-27T11:41:02.711Z,13.05
2023-01-27T11:43:29.631Z,11.13
2023-01-27T11:46:02.521Z,13.32
2023-01-27T11:48:41.044Z,11.23
2023-01-27T11:51:14.645Z,10.38
2023-01-27T11:53:41.780Z,11.43
2023-01-27T11:56:15.972Z,11.23
2023-01-27T11:58:47.586Z,10.73
2023-01-27T12:01:19.067Z,10.52
2023-01-27T12:03:54.849Z,12.23
2023-01-27T12:06:31.600Z,11.13
2023-01-27T12:08:58.311Z,8.65
2023-01-27T12:11:26.679Z,10.65
2023-01-27T12:13:56.418Z,10.15
2023-01-27T12:16:27.250Z,11.00
2023-01-27T12:19:02.510Z,10.55
2023-01-27T12:21:48.032Z,11.25
2023-01-27T12:24:24.546Z,10.18
2023-01-27T12:26:52.316Z,10.77
2023-01-27T12:29:23.427Z,10.02
2023-01-27T12:31:53.501Z,8.55
2023-01-27T12:34:27.479Z,8.45
2023-01-27T12:36:55.559Z,8.48
2023-01-27T12:39:37.120Z,10.18
2023-01-27T12:42:04.123Z,15.68
2023-01-27T12:44:41.683Z,9.23
2023-01-27T12:47:23.620Z,9.65
2023-01-27T12:49:51.668Z,11.50
2023-01-27T12:52:20.073Z,11.48
2023-01-27T12:54:47.047Z,12.73
2023-01-27T12:57:18.055Z,11.02
2023-01-27T12:59:50.338Z,8.20
2023-01-27T13:02:20.567Z,10.85
2023-01-27T13:04:53.128Z,11.60
2023-01-27T13:07:23.916Z,10.48
2023-01-27T13:09:54.367Z,11.70
2023-01-27T13:12:23.519Z,11.55
2023-01-27T13:14:53.145Z,10.60
2023-01-27T13:17:28.560Z,11.63
2023-01-27T13:20:00.440Z,11.32
2023-01-27T13:22:28.459Z,11.52
2023-01-27T13:25:02.722Z,10.88
2023-01-27T13:27:38.873Z,11.38
2023-01-27T13:30:15.369Z,9.77
2023-01-27T13:32:47.196Z,9.63
2023-01-27T13:35:22.891Z,13.32
2023-01-27T13:37:59.272Z,9.77
2023-01-27T13:42:59.625Z,10.88
2023-01-27T13:45:35.597Z,11.35
2023-01-27T13:48:04.838Z,9.77
2023-01-27T13:50:37.759Z,8.02
2023-01-27T13:53:05.918Z,10.73
2023-01-27T13:55:58.591Z,10.07
2023-01-27T13:58:38.716Z,12.27
2023-01-27T14:01:18.419Z,9.85
2023-01-27T14:04:05.819Z,16.23
2023-01-27T14:06:47.375Z,17.63
2023-01-27T14:09:29.972Z,11.32
2023-01-27T14:12:09.182Z,11.45
2023-01-27T14:14:58.056Z,10.68
2023-01-27T14:17:43.525Z,9.70
2023-01-27T14:20:31.266Z,12.93
2023-01-27T14:23:16.431Z,11.38
2023-01-27T14:25:54.009Z,15.80
2023-01-27T14:28:32.143Z,13.93
2023-01-27T14:31:04.813Z,19.05
2023-01-27T14:33:47.556Z,12.52
2023-01-27T14:36:21.382Z,8.65
2023-01-27T14:39:00.492Z,12.57
2023-01-27T14:41:35.361Z,10.30
2023-01-27T14:44:09.714Z,12.25
2023-01-27T14:46:50.318Z,11.80
2023-01-27T14:49:30.391Z,12.32
2023-01-27T14:52:02.937Z,11.43
2023-01-27T14:54:50.843Z,10.73
2023-01-27T14:57:27.286Z,10.70
2023-01-27T15:02:39.349Z,14.05
2023-01-27T15:05:14.961Z,11.13
2023-01-27T15:07:51.380Z,12.90
2023-01-27T15:10:23.707Z,14.02
2023-01-27T15:13:23.047Z,11.82
2023-01-27T15:16:19.399Z,12.20
2023-01-27T15:19:07.980Z,9.57
2023-01-27T15:21:47.308Z,9.38
2023-01-27T15:24:40.649Z,10.18
2023-01-27T15:27:09.930Z,12.35
2023-01-27T15:29:38.789Z,13.50
2023-01-27T15:32:28.901Z,12.32
2023-01-27T15:35:34.455Z,13.65
2023-01-27T15:38:17.618Z,12.48
2023-01-27T15:41:01.688Z,10.85
2023-01-27T15:43:31.331Z,11.25
2023-01-27T15:46:18.958Z,11.52
2023-01-27T15:48:46.525Z,11.73
2023-01-27T15:51:18.720Z,16.00
2023-01-27T15:53:50.920Z,13.13
2023-01-27T15:56:17.809Z,10.75
2023-01-27T15:58:56.111Z,14.05
2023-01-27T16:01:26.660Z,12.27
2023-01-27T16:04:05.963Z,15.23
2023-01-27T16:06:32.912Z,19.67
2023-01-27T16:09:02.871Z,20.05
2023-01-27T16:11:41.836Z,16.98
2023-01-27T16:14:45.642Z,17.02
2023-01-27T16:17:32.071Z,12.88
2023-01-27T16:20:21.023Z,11.05
2023-01-27T16:22:57.847Z,13.52
2023-01-27T16:25:31.551Z,10.90
2023-01-27T16:28:03.789Z,11.88
2023-01-27T16:30:35.470Z,10.73
2023-01-27T16:33:06.446Z,13.30
2023-01-27T16:35:40.285Z,12.55
2023-01-27T16:38:19.929Z,14.98
2023-01-27T16:40:51.163Z,13.48
2023-01-27T16:43:21.526Z,14.75
2023-01-27T16:45:52.371Z,13.38
2023-01-27T16:48:27.694Z,11.50
2023-01-27T16:51:05.445Z,13.23
2023-01-27T16:53:32.431Z,13.38
2023-01-27T16:56:02.386Z,12.65
2023-01-27T16:58:43.835Z,18.27
2023-01-27T17:03:46.796Z,18.05
2023-01-27T17:06:16.146Z,15.65
2023-01-27T17:08:44.412Z,11.27
2023-01-27T17:11:18.069Z,12.18
2023-01-27T17:13:49.942Z,14.43
2023-01-27T17:16:24.816Z,11.98
2023-01-27T17:18:53.204Z,11.68
2023-01-27T17:21:33.347Z,11.15
2023-01-27T17:24:03.476Z,14.55
2023-01-27T17:26:30.491Z,16.25
2023-01-27T17:28:57.785Z,14.32
2023-01-27T17:31:26.141Z,16.45
2023-01-27T17:33:59.887Z,18.00
2023-01-27T17:36:26.877Z,13.52
2023-01-27T17:38:57.211Z,12.05
2023-01-27T17:41:30.135Z,14.77
2023-01-27T17:44:01.296Z,12.45
2023-01-27T17:46:32.861Z,13.20
2023-01-27T17:49:03.316Z,12.15
2023-01-27T17:51:35.608Z,16.25
2023-01-27T17:54:13.353Z,14.48
2023-01-27T17:56:40.054Z,17.85
2023-01-27T17:59:13.335Z,18.15
2023-01-27T18:01:41.837Z,18.25
2023-01-27T18:04:09.715Z,15.93
2023-01-27T18:06:37.389Z,15.68
2023-01-27T18:09:17.099Z,18.23
2023-01-27T18:11:53.487Z,17.42
2023-01-27T18:14:20.645Z,16.50
2023-01-27T18:17:13.612Z,14.15
2023-01-27T18:19:50.384Z,14.82
2023-01-27T18:22:17.869Z,16.90
2023-01-27T18:24:49.964Z,13.85
2023-01-27T18:27:23.303Z,12.82
2023-01-27T18:29:52.839Z,13.05
2023-01-27T18:32:24.126Z,14.45
2023-01-27T18:34:53.792Z,13.10
2023-01-27T18:37:27.427Z,13.82
2023-01-27T18:39:54.459Z,11.50
2023-01-27T18:42:23.527Z,13.70
2023-01-27T18:44:51.641Z,14.60
2023-01-27T18:47:31.921Z,15.02
2023-01-27T18:50:15.045Z,13.70
2023-01-27T18:52:42.425Z,16.75
2023-01-27T18:55:18.216Z,14.27
2023-01-27T18:57:45.962Z,14.18
2023-01-27T19:00:15.480Z,14.98
2023-01-27T19:02:49.005Z,13.30
2023-01-27T19:05:18.954Z,16.85
2023-01-27T19:07:45.929Z,16.23
2023-01-27T19:10:15.915Z,13.75
2023-01-27T19:12:43.255Z,14.82
2023-01-27T19:15:13.297Z,14.60
2023-01-27T19:17:40.717Z,14.68
2023-01-27T19:20:18.824Z,13.95
2023-01-27T19:22:46.980Z,15.98
2023-01-27T19:25:14.318Z,16.20
2023-01-27T19:27:44.220Z,16.75
2023-01-27T19:30:25.197Z,15.63
2023-01-27T19:32:52.663Z,17.50
2023-01-27T19:35:20.776Z,14.48
2023-01-27T19:37:49.166Z,14.32
2023-01-27T19:40:17.128Z,14.70
2023-01-27T19:42:44.362Z,17.45
2023-01-27T19:45:13.131Z,15.60
2023-01-27T19:47:40.160Z,17.92
2023-01-27T19:50:15.952Z,15.63
2023-01-27T19:52:45.359Z,16.33
2023-01-27T19:57:39.875Z,13.77
2023-01-27T20:00:17.280Z,19.35
2023-01-27T20:02:44.454Z,18.45
2023-01-27T20:05:11.238Z,21.88
2023-01-27T20:07:38.930Z,14.43
2023-01-27T20:10:13.822Z,14.75
2023-01-27T20:12:41.096Z,14.65
2023-01-27T20:15:17.495Z,16.80
2023-01-27T20:17:44.833Z,16.02
2023-01-27T20:20:13.611Z,20.77
2023-01-27T20:22:40.878Z,17.00
2023-01-27T20:25:13.522Z,15.50
2023-01-27T20:27:41.501Z,18.10
2023-01-27T20:30:12.569Z,15.73
2023-01-27T20:32:39.162Z,17.50
2023-01-27T20:35:06.381Z,13.90
2023-01-27T20:37:33.532Z,17.23
2023-01-27T20:40:00.450Z,14.32
2023-01-27T20:42:29.619Z,14.82
2023-01-27T20:44:56.308Z,17.33
2023-01-27T20:47:23.086Z,16.17
2023-01-27T20:49:49.983Z,15.32
2023-01-27T20:52:16.941Z,13.73
2023-01-27T20:54:43.932Z,14.70
2023-01-27T20:57:10.592Z,17.67
2023-01-27T20:59:39.909Z,15.32
2023-01-27T21:02:07.000Z,16.52
2023-01-27T21:04:34.403Z,19.45
2023-01-27T21:07:01.201Z,17.85
2023-01-27T21:09:28.235Z,15.35
2023-01-27T21:11:54.940Z,19.20
2023-01-27T21:14:21.756Z,15.48
2023-01-27T21:16:50.658Z,19.45
2023-01-27T21:19:17.833Z,19.58
2023-01-27T21:21:46.463Z,14.18
2023-01-27T21:24:13.444Z,22.77
2023-01-27T21:26:40.544Z,19.20
2023-01-27T21:29:10.727Z,26.75
2023-01-27T21:31:40.254Z,24.98
2023-01-27T21:34:10.515Z,20.63
2023-01-27T21:36:37.515Z,15.02
2023-01-27T21:39:04.965Z,19.63
2023-01-27T21:41:50.937Z,21.15
2023-01-27T21:44:38.180Z,17.45
2023-01-27T21:47:06.382Z,16.45
2023-01-27T21:49:56.554Z,16.10
2023-01-27T21:52:24.345Z,18.92
2023-01-27T21:54:51.101Z,19.15
2023-01-27T21:57:18.294Z,22.80
2023-01-27T21:59:46.019Z,18.08
2023-01-27T22:02:13.319Z,16.88
2023-01-27T22:04:42.188Z,15.38
2023-01-27T22:07:12.467Z,18.63
2023-01-27T22:09:39.866Z,17.80
2023-01-27T22:12:08.626Z,15.98
2023-01-27T22:14:35.779Z,22.70
2023-01-27T22:17:04.819Z,18.73
2023-01-27T22:19:32.020Z,16.85
2023-01-27T22:22:01.244Z,19.50
2023-01-27T22:24:28.003Z,18.85
2023-01-27T22:26:55.058Z,16.52
2023-01-27T22:29:21.933Z,19.00
2023-01-27T22:31:49.506Z,18.75
2023-01-27T22:34:16.735Z,18.63
2023-01-27T22:36:43.434Z,17.48
2023-01-27T22:39:11.918Z,16.83
2023-01-27T22:41:38.770Z,18.80
2023-01-27T22:44:06.016Z,18.00
2023-01-27T22:46:32.690Z,18.83
2023-01-27T22:48:59.496Z,18.50
2023-01-27T22:51:26.652Z,20.10
2023-01-27T22:53:53.697Z,17.98
2023-01-27T22:56:21.731Z,17.55
2023-01-27T22:58:48.796Z,23.77
2023-01-27T23:01:15.454Z,16.38
2023-01-27T23:03:42.129Z,17.75
2023-01-27T23:06:09.192Z,14.68
2023-01-27T23:08:36.431Z,16.65
2023-01-27T23:11:04.918Z,16.77
2023-01-27T23:13:34.942Z,20.95
2023-01-27T23:16:02.609Z,14.88
2023-01-27T23:18:29.347Z,18.08
2023-01-27T23:21:02.914Z,14.38
2023-01-27T23:23:30.302Z,20.48
2023-01-27T23:25:57.609Z,15.65
2023-01-27T23:28:24.744Z,14.35
2023-01-27T23:30:53.825Z,14.38
2023-01-27T23:33:20.843Z,16.15
2023-01-27T23:35:47.871Z,16.45
2023-01-27T23:38:31.400Z,16.77
2023-01-27T23:41:00.699Z,17.73
2023-01-27T23:43:30.926Z,15.45
2023-01-27T23:45:59.765Z,17.15
2023-01-27T23:48:27.692Z,14.65
2023-01-27T23:50:55.079Z,15.55
2023-01-27T23:53:22.137Z,14.65
2023-01-27T23:55:56.448Z,14.05
2023-01-27T23:58:23.166Z,16.23
